Latest Weather Observations for Cocos Island

IDW60801

Issued at 5:02 pm WST Sunday 5 July 2015 (issued every 30 minutes, with the page automatically refreshed every 10 minutes)

About weather observations | Map of weather stations | Latest weather observations for WA | Other Formats
Station Details ID: 200284 Name: COCOS ISLAND AIRPORT Lat: -12.19 Lon: 96.83 Height: 3.0 m
Data from the previous 72 hours. | See also: Recent months at Cocos Island
Date/Time
WST
Temp
°C
App
Temp
°C
Dew
Point
Rel
Hum
%
Delta-T
°C
Wind Press
QNH
hPa
Press
MSL
hPa
Rain
since 9 am
mm
Dir
 
Spd
km/h
Gust
km/h
Spd
kts
Gust
kts
05/04:30pm 27.0 25.0 20.8 69 4.1 ESE 32 41 17 22 1012.7 - 0.0
05/04:00pm 27.5 25.7 21.5 70 4.0 ESE 33 46 18 25 1012.7 - 0.0
05/03:30pm 27.6 25.9 21.4 69 4.1 ESE 32 41 17 22 1012.7 - 0.0
05/03:00pm 27.2 26.1 22.5 75 3.2 ESE 32 39 17 21 1012.9 - 0.0
05/02:30pm 27.4 26.6 23.0 77 3.0 ESE 32 43 17 23 1013.2 - 0.0
05/02:00pm 27.9 27.3 21.9 70 4.0 ESE 28 41 15 22 1013.6 1013.6 0.0
05/01:30pm 28.3 27.2 21.7 67 4.4 ESE 30 39 16 21 1014.0 - 0.0
05/01:00pm 28.0 27.0 21.9 69 4.1 ESE 30 41 16 22 1014.2 - 0.0
05/12:30pm 28.2 27.6 21.9 68 4.2 ESE 28 39 15 21 1014.4 - 0.0
05/12:00pm 28.1 27.4 21.8 68 4.2 ESE 28 37 15 20 1014.6 - 0.0
05/11:30am 27.7 26.9 21.6 69 4.1 ESE 28 41 15 22 1014.8 - 0.0
05/11:00am 27.4 26.1 21.4 70 4.0 ESE 30 41 16 22 1014.8 1014.8 0.4
05/10:30am 27.5 25.6 21.0 67 4.3 ESE 32 43 17 23 1014.9 - 0.4
05/10:00am 27.0 26.0 21.3 71 3.8 ESE 28 37 15 20 1014.8 - 0.4
05/09:30am 27.2 25.6 20.8 68 4.2 ESE 30 41 16 22 1014.7 - 0.4
05/09:00am 26.7 25.9 21.6 73 3.4 ESE 28 39 15 21 1014.4 - 0.4
05/08:30am 26.5 25.6 21.4 73 3.4 ESE 28 35 15 19 1014.2 - 0.4
05/08:00am 26.4 26.1 21.8 76 3.1 ESE 26 35 14 19 1013.9 1013.9 0.4
05/07:30am 26.2 25.3 21.4 75 3.2 ESE 28 35 15 19 1013.8 - 0.4
05/07:00am 25.8 25.6 22.1 80 2.5 SE 26 32 14 17 1013.8 - 0.4
05/06:30am 25.9 24.1 21.2 75 3.1 ESE 32 39 17 21 1013.7 - 0.4
05/06:00am 25.8 24.1 21.3 76 3.0 SE 32 39 17 21 1013.5 - 0.4
05/05:30am 25.8 25.0 21.6 77 2.8 SE 28 37 15 20 1013.5 - 0.4
05/05:00am 26.1 24.7 20.4 71 3.7 ESE 28 37 15 20 1013.7 1013.7 0.4
05/04:30am 25.6 24.8 21.7 79 2.6 ESE 28 37 15 20 1013.8 - 0.4
05/04:00am 25.6 24.9 21.8 79 2.5 SE 28 37 15 20 1014.0 - 0.4
05/03:30am 25.8 24.6 21.6 77 2.8 SE 30 39 16 21 1014.1 - 0.4
05/03:00am 26.2 24.6 20.7 71 3.6 SE 30 39 16 21 1014.6 - 0.4
05/02:30am 26.0 25.0 21.2 75 3.2 SE 28 41 15 22 1014.8 - 0.4
05/02:00am 26.1 24.9 20.9 73 3.4 SE 28 35 15 19 1015.1 1015.1 0.4
05/01:30am 26.3 25.3 21.2 73 3.4 SE 28 35 15 19 1015.3 - 0.4
05/01:00am 26.4 24.8 20.8 71 3.7 ESE 30 39 16 21 1015.4 - 0.4
05/12:30am 26.4 25.1 20.6 70 3.8 ESE 28 39 15 21 1015.5 - 0.4
05/12:00am 26.5 25.2 20.6 70 3.9 ESE 28 39 15 21 1015.5 - 0.4
 
Date/Time
WST
Temp
°C
App
Temp
°C
Dew
Point
Rel
Hum
%
Delta-T
°C
Wind Press
QNH
hPa
Press
MSL
hPa
Rain
since 9 am
mm
Dir
 
Spd
km/h
Gust
km/h
Spd
kts
Gust
kts
04/11:30pm 26.5 24.5 20.7 70 3.8 ESE 32 39 17 21 1015.5 - 0.4
04/11:00pm 26.6 25.0 20.7 70 3.9 ESE 30 39 16 21 1015.5 1015.5 0.4
04/10:30pm 26.7 24.5 20.3 68 4.2 ESE 32 41 17 22 1015.3 - 0.4
04/10:00pm 26.7 24.8 20.9 70 3.8 ESE 32 44 17 24 1015.2 - 0.4
04/09:30pm 26.8 25.4 21.1 71 3.8 ESE 30 41 16 22 1014.9 - 0.4
04/09:00pm 26.6 25.3 21.3 72 3.5 ESE 30 41 16 22 1014.7 - 0.4
04/08:30pm 26.6 25.1 21.0 71 3.7 ESE 30 44 16 24 1014.4 - 0.4
04/08:00pm 26.5 24.8 21.4 73 3.4 ESE 32 44 17 24 1014.0 1014.0 0.4
04/07:30pm 26.7 25.2 21.8 74 3.3 ESE 32 41 17 22 1013.7 - 0.4
04/07:00pm 26.8 24.4 21.1 71 3.8 ESE 35 44 19 24 1013.6 - 0.4
04/06:30pm 26.9 24.7 21.5 72 3.6 ESE 35 46 19 25 1013.4 - 0.4
04/06:00pm 27.0 25.1 21.4 71 3.7 ESE 33 46 18 25 1013.4 - 0.4
04/05:30pm 27.3 24.8 21.6 71 3.8 ESE 37 46 20 25 1013.3 - 0.4
04/05:00pm 27.9 26.7 21.5 68 4.3 ESE 30 41 16 22 1013.3 1013.3 0.4
04/04:30pm 27.7 25.9 21.2 67 4.3 ESE 32 41 17 22 1013.3 - 0.4
04/04:00pm 28.2 26.1 21.0 65 4.8 ESE 33 44 18 24 1013.4 - 0.4
04/03:30pm 28.4 27.3 21.7 67 4.5 ESE 30 41 16 22 1013.6 - 0.4
04/03:00pm 28.4 26.6 21.2 65 4.8 ESE 32 44 17 24 1013.9 - 0.4
04/02:30pm 28.0 27.4 21.2 66 4.5 E 26 35 14 19 1014.2 - 0.2
04/02:00pm 27.8 27.4 21.7 69 4.1 ESE 26 35 14 19 1014.5 1014.5 0.2
04/01:30pm 27.5 26.9 22.0 72 3.7 ESE 28 41 15 22 1014.9 - 0.2
04/01:28pm 27.5 26.8 21.8 71 3.8 ESE 28 41 15 22 1014.9 - 0.2
04/01:00pm 26.8 28.7 22.8 79 2.7 ENE 17 19 9 10 1015.2 - 0.2
04/12:30pm 25.7 26.8 22.0 80 2.5 E 19 20 10 11 1015.4 - 0.2
04/12:03pm 24.9 24.4 22.2 85 1.8 E 28 37 15 20 1015.7 - 0.2
04/12:00pm 24.7 24.6 22.2 86 1.7 E 26 37 14 20 1015.8 - 0.2
04/11:41am 24.3 23.9 22.4 89 1.3 E 28 41 15 22 1015.9 - 0.2
04/11:30am 24.7 25.1 22.5 87 1.5 E 24 32 13 17 1015.8 - 0.0
04/11:00am 23.9 22.5 22.2 90 1.1 E 33 41 18 22 1015.9 1015.9 4.2
04/10:30am 25.1 26.4 22.7 86 1.6 E 20 28 11 15 1015.8 - 4.2
04/10:00am 25.8 26.4 21.4 76 2.9 ESE 20 28 11 15 1015.3 - 4.2
04/09:30am 24.6 24.0 21.9 85 1.8 E 28 41 15 22 1015.1 - 4.2
04/09:00am 24.4 24.1 22.5 89 1.3 E 28 39 15 21 1014.7 - 4.2
04/08:30am 24.2 23.7 22.1 88 1.4 ESE 28 37 15 20 1014.3 - 4.2
04/08:18am 24.1 24.3 22.8 92 0.9 ESE 26 33 14 18 1014.3 - 4.2
04/08:00am 23.8 21.7 22.3 91 1.0 ESE 37 46 20 25 1014.2 1014.2 4.0
04/07:45am 24.4 22.0 22.6 90 1.2 SE 39 46 21 25 1014.1 - 3.8
04/07:30am 25.1 23.2 22.1 83 2.0 SE 35 44 19 24 1013.9 - 3.8
04/07:00am 25.5 24.2 21.4 78 2.7 ESE 30 41 16 22 1013.7 - 3.8
04/06:30am 25.3 24.8 21.4 79 2.6 ESE 26 39 14 21 1013.6 - 3.8
04/06:00am 25.1 24.3 22.4 85 1.8 ESE 30 43 16 23 1013.5 - 3.8
04/05:53am 25.1 24.2 22.1 83 2.0 ESE 30 39 16 21 1013.5 - 3.8
04/05:30am 24.6 25.4 22.4 87 1.5 E 22 35 12 19 1013.5 - 3.4
04/05:28am 24.6 25.4 22.4 87 1.5 E 22 32 12 17 1013.5 - 3.4
04/05:00am 25.3 26.2 22.0 82 2.2 SE 20 30 11 16 1013.5 1013.5 3.2
04/04:32am 24.7 23.8 21.4 82 2.2 SE 28 35 15 19 1013.5 - 3.2
04/04:30am 24.7 23.6 21.0 80 2.4 SE 28 35 15 19 1013.5 - 3.2
04/04:23am 24.7 24.3 22.3 86 1.6 ESE 28 35 15 19 1013.6 - 3.2
04/04:12am 23.8 27.1 22.5 92 0.9 SE 9 13 5 7 1013.8 - 2.8
04/04:00am 23.9 26.4 22.4 91 1.0 E 13 19 7 10 1013.8 - 1.6
04/03:48am 24.0 26.7 22.2 90 1.2 ESE 11 15 6 8 1014.1 - 1.4
04/03:30am 24.0 24.5 22.7 92 0.9 SSE 24 37 13 20 1014.2 - 1.4
04/03:27am 24.4 25.0 22.8 91 1.1 SSE 24 37 13 20 1014.3 - 0.6
04/03:00am 24.5 24.9 21.8 85 1.8 SSE 22 30 12 16 1014.3 - 0.0
04/02:30am 24.3 24.4 21.9 86 1.6 SSE 24 30 13 16 1014.4 - 0.0
04/02:00am 24.8 24.6 21.3 81 2.3 SSE 24 33 13 18 1014.9 1014.9 0.0
04/01:30am 24.5 25.2 21.2 82 2.2 SSE 19 24 10 13 1015.2 - 0.0
04/01:00am 24.5 23.7 20.8 80 2.4 SSE 26 33 14 18 1015.5 - 0.0
04/12:30am 25.0 24.1 20.7 77 2.8 SE 26 35 14 19 1015.7 - 0.0
04/12:00am 25.9 25.5 20.2 71 3.7 SE 22 32 12 17 1015.9 - 0.0
 
Date/Time
WST
Temp
°C
App
Temp
°C
Dew
Point
Rel
Hum
%
Delta-T
°C
Wind Press
QNH
hPa
Press
MSL
hPa
Rain
since 9 am
mm
Dir
 
Spd
km/h
Gust
km/h
Spd
kts
Gust
kts
03/11:30pm 25.9 25.5 20.2 71 3.7 SE 22 30 12 16 1016.2 - 0.0
03/11:00pm 25.9 26.3 20.6 72 3.5 SE 19 26 10 14 1016.2 1016.2 0.0
03/10:30pm 26.1 25.4 20.3 70 3.8 SE 24 32 13 17 1016.1 - 0.0
03/10:00pm 26.2 25.2 19.7 67 4.2 SE 24 32 13 17 1016.0 - 0.0
03/09:30pm 26.2 25.1 19.5 66 4.3 SE 24 33 13 18 1015.8 - 0.0
03/09:00pm 26.2 24.7 19.5 66 4.3 SE 26 33 14 18 1015.7 - 0.0
03/08:30pm 26.3 24.5 18.8 63 4.8 SE 26 33 14 18 1015.3 - 0.0
03/08:00pm 26.4 24.8 19.1 64 4.7 SE 26 37 14 20 1015.1 1015.1 0.0
03/07:30pm 26.4 24.5 19.4 65 4.5 SE 28 39 15 21 1014.7 - 0.0
03/07:00pm 26.6 25.3 20.7 70 3.9 SE 28 37 15 20 1014.5 - 0.0
03/06:30pm 26.9 25.2 19.8 65 4.6 SE 28 37 15 20 1014.1 - 0.0
03/06:00pm 27.1 24.7 20.0 65 4.6 SE 32 39 17 21 1014.0 - 0.0
03/05:30pm 27.3 25.5 20.4 66 4.5 SE 30 41 16 22 1014.1 - 0.0
03/05:00pm 27.7 26.4 20.7 65 4.6 SE 28 35 15 19 1014.0 1014.0 0.0
03/04:30pm 28.0 26.5 20.9 65 4.7 SE 30 41 16 22 1014.1 - 0.0
03/04:00pm 27.8 26.8 21.3 67 4.3 SE 28 37 15 20 1014.3 - 0.0
03/03:30pm 27.7 26.3 21.2 67 4.3 SE 30 39 16 21 1014.5 - 0.0
03/03:00pm 28.2 27.1 21.1 65 4.7 SE 28 35 15 19 1014.8 - 0.0
03/02:30pm 28.4 27.4 21.2 65 4.8 SE 28 35 15 19 1015.1 - 0.0
03/02:00pm 28.3 27.3 20.4 62 5.2 SE 26 32 14 17 1015.4 1015.4 0.0
03/01:30pm 28.1 27.3 20.0 61 5.3 SE 24 32 13 17 1015.9 - 0.0
03/01:00pm 28.0 26.5 19.5 60 5.5 SE 26 33 14 18 1016.4 - 0.0
03/12:30pm 27.9 26.6 19.9 61 5.2 ESE 26 35 14 19 1016.5 - 0.0
03/12:00pm 27.7 26.8 20.6 65 4.7 ESE 26 35 14 19 1016.7 - 0.0
03/11:30am 27.9 28.1 21.3 67 4.4 ESE 22 33 12 18 1016.8 - 0.0
03/11:00am 27.5 26.4 20.2 64 4.8 ESE 26 35 14 19 1016.9 1016.9 0.0
03/10:30am 27.4 26.2 20.0 64 4.8 ESE 26 37 14 20 1016.9 - 0.0
03/10:00am 27.0 25.6 20.4 67 4.3 ESE 28 37 15 20 1016.8 - 0.0
03/09:30am 26.8 24.9 20.2 67 4.3 ESE 30 39 16 21 1016.6 - 0.0
03/09:00am 26.4 24.9 20.9 72 3.6 ESE 30 37 16 20 1016.2 - 0.0
03/08:30am 26.3 25.7 21.2 73 3.4 ESE 26 39 14 21 1015.7 - 0.0
03/08:00am 26.2 24.2 20.7 71 3.6 SE 32 39 17 21 1015.4 1015.4 0.0
03/07:30am 25.8 26.3 21.9 79 2.6 SE 22 28 12 15 1015.2 - 0.0
03/07:00am 25.4 23.7 21.3 78 2.7 SE 32 35 17 19 1015.1 - 0.0
03/06:30am 25.4 26.5 21.3 78 2.7 E 17 24 9 13 1014.9 - 0.0
03/06:00am 24.2 24.3 21.8 86 1.6 E 24 32 13 17 1014.9 - 0.0
03/05:30am 24.8 23.4 21.9 84 1.9 E 32 39 17 21 1014.7 - 0.0
03/05:00am 25.6 24.4 21.5 78 2.7 ESE 30 35 16 19 1014.6 1014.6 0.0
03/04:30am 25.6 24.1 21.8 79 2.5 SE 32 41 17 22 1014.7 - 0.0
03/04:00am 25.9 24.3 21.5 76 2.9 ESE 32 41 17 22 1014.8 - 0.0
03/03:30am 25.8 25.2 22.7 83 2.1 ESE 30 41 16 22 1015.2 - 0.0
03/03:00am 25.7 24.1 21.5 77 2.8 ESE 32 41 17 22 1015.5 - 0.0
03/02:30am 25.5 24.6 22.2 82 2.2 ESE 30 41 16 22 1015.6 - 0.0
03/02:00am 26.1 25.2 22.1 78 2.7 ESE 30 43 16 23 1015.8 1015.8 0.0
03/01:30am 26.2 26.3 22.6 80 2.4 ESE 26 37 14 20 1016.0 - 0.0
03/01:00am 26.1 26.5 22.4 80 2.5 ESE 24 33 13 18 1016.2 - 0.0
03/12:30am 26.5 26.6 21.9 76 3.1 ESE 24 37 13 20 1016.4 - 0.0
03/12:00am 26.5 25.9 21.2 72 3.5 ESE 26 35 14 19 1016.6 - 0.0
 
Date/Time
WST
Temp
°C
App
Temp
°C
Dew
Point
Rel
Hum
%
Delta-T
°C
Wind Press
QNH
hPa
Press
MSL
hPa
Rain
since 9 am
mm
Dir
 
Spd
km/h
Gust
km/h
Spd
kts
Gust
kts
02/11:30pm 26.6 26.7 21.8 75 3.2 ESE 24 35 13 19 1016.9 - 0.0
02/11:00pm 26.7 26.4 21.8 74 3.3 ESE 26 35 14 19 1016.9 1016.9 0.0
02/10:30pm 26.8 25.9 22.2 76 3.1 ESE 30 39 16 21 1016.7 - 0.0
02/10:00pm 26.9 27.6 22.9 79 2.7 E 24 33 13 18 1016.7 - 0.0
02/09:30pm 26.9 26.7 22.1 75 3.2 ESE 26 35 14 19 1016.4 - 0.0
02/09:00pm 26.9 26.2 21.8 73 3.4 ESE 28 39 15 21 1016.1 - 0.0
02/08:30pm 26.9 27.3 23.2 80 2.5 E 26 37 14 20 1015.7 - 0.0
02/08:00pm 26.9 26.9 22.4 76 3.0 ESE 26 35 14 19 1015.5 1015.5 0.0
02/07:30pm 26.9 26.4 22.1 75 3.2 ESE 28 39 15 21 1015.2 - 0.0
02/07:00pm 27.0 26.6 22.4 76 3.1 ESE 28 35 15 19 1015.0 - 0.0

Other Formats:

Comma delimited format used in spreadsheet applications
http://www.bom.gov.au/fwo/IDW60801/IDW60801.96996.axf

JavaScript Object Notation format (JSON) in row-major order
http://www.bom.gov.au/fwo/IDW60801/IDW60801.96996.json